sensor_id;sensor_type;location;lat;lon;timestamp;P1;durP1;ratioP1;P2;durP2;ratioP2
56419;SDS011;42323;52.170;7.538;2022-09-13T00:01:09;7.45;;;5.03;;
56419;SDS011;42323;52.170;7.538;2022-09-13T00:03:36;7.75;;;5.65;;
56419;SDS011;42323;52.170;7.538;2022-09-13T00:06:06;8.88;;;5.88;;
56419;SDS011;42323;52.170;7.538;2022-09-13T00:08:37;7.27;;;5.70;;
56419;SDS011;42323;52.170;7.538;2022-09-13T00:11:05;7.68;;;5.35;;
56419;SDS011;42323;52.170;7.538;2022-09-13T00:13:32;8.82;;;5.95;;
56419;SDS011;42323;52.170;7.538;2022-09-13T00:15:59;7.35;;;5.70;;
56419;SDS011;42323;52.170;7.538;2022-09-13T00:18:29;7.65;;;5.97;;
56419;SDS011;42323;52.170;7.538;2022-09-13T00:21:06;8.40;;;5.95;;
56419;SDS011;42323;52.170;7.538;2022-09-13T00:23:35;12.02;;;6.53;;
56419;SDS011;42323;52.170;7.538;2022-09-13T00:26:03;7.18;;;5.50;;
56419;SDS011;42323;52.170;7.538;2022-09-13T00:28:35;8.25;;;6.20;;
56419;SDS011;42323;52.170;7.538;2022-09-13T00:31:03;9.93;;;5.80;;
56419;SDS011;42323;52.170;7.538;2022-09-13T00:33:32;7.93;;;5.85;;
56419;SDS011;42323;52.170;7.538;2022-09-13T00:36:03;8.48;;;6.18;;
56419;SDS011;42323;52.170;7.538;2022-09-13T00:38:34;8.63;;;6.45;;
56419;SDS011;42323;52.170;7.538;2022-09-13T00:41:07;8.60;;;6.15;;
56419;SDS011;42323;52.170;7.538;2022-09-13T00:46:17;8.65;;;5.72;;
56419;SDS011;42323;52.170;7.538;2022-09-13T00:48:53;9.23;;;6.05;;
56419;SDS011;42323;52.170;7.538;2022-09-13T00:51:26;10.70;;;6.30;;
56419;SDS011;42323;52.170;7.538;2022-09-13T00:53:54;10.73;;;6.63;;
56419;SDS011;42323;52.170;7.538;2022-09-13T00:56:32;9.00;;;6.20;;
56419;SDS011;42323;52.170;7.538;2022-09-13T00:59:12;9.40;;;6.07;;
56419;SDS011;42323;52.170;7.538;2022-09-13T01:01:44;9.05;;;5.70;;
56419;SDS011;42323;52.170;7.538;2022-09-13T01:04:15;8.52;;;5.95;;
56419;SDS011;42323;52.170;7.538;2022-09-13T01:06:46;10.77;;;6.47;;
56419;SDS011;42323;52.170;7.538;2022-09-13T01:09:15;9.02;;;5.85;;
56419;SDS011;42323;52.170;7.538;2022-09-13T01:11:45;9.35;;;6.00;;
56419;SDS011;42323;52.170;7.538;2022-09-13T01:14:23;8.10;;;6.28;;
56419;SDS011;42323;52.170;7.538;2022-09-13T01:16:50;8.82;;;5.75;;
56419;SDS011;42323;52.170;7.538;2022-09-13T01:19:18;10.70;;;6.20;;
56419;SDS011;42323;52.170;7.538;2022-09-13T01:44:31;10.50;;;6.25;;
56419;SDS011;42323;52.170;7.538;2022-09-13T01:50:33;8.85;;;6.30;;
56419;SDS011;42323;52.170;7.538;2022-09-13T01:55:25;8.45;;;6.32;;
56419;SDS011;42323;52.170;7.538;2022-09-13T02:03:58;10.50;;;6.75;;
56419;SDS011;42323;52.170;7.538;2022-09-13T02:06:32;7.45;;;5.22;;
56419;SDS011;42323;52.170;7.538;2022-09-13T02:09:12;8.93;;;6.07;;
56419;SDS011;42323;52.170;7.538;2022-09-13T02:11:47;8.95;;;5.35;;
56419;SDS011;42323;52.170;7.538;2022-09-13T02:14:55;9.63;;;6.55;;
56419;SDS011;42323;52.170;7.538;2022-09-13T02:17:23;8.43;;;5.38;;
56419;SDS011;42323;52.170;7.538;2022-09-13T02:19:56;9.88;;;5.45;;
56419;SDS011;42323;52.170;7.538;2022-09-13T02:22:26;6.95;;;5.20;;
56419;SDS011;42323;52.170;7.538;2022-09-13T02:24:59;7.03;;;4.97;;
56419;SDS011;42323;52.170;7.538;2022-09-13T02:27:31;11.63;;;5.97;;
56419;SDS011;42323;52.170;7.538;2022-09-13T02:30:00;10.63;;;5.43;;
56419;SDS011;42323;52.170;7.538;2022-09-13T02:32:32;9.40;;;6.38;;
56419;SDS011;42323;52.170;7.538;2022-09-13T02:37:40;9.48;;;6.03;;
56419;SDS011;42323;52.170;7.538;2022-09-13T02:40:12;8.55;;;5.97;;
56419;SDS011;42323;52.170;7.538;2022-09-13T02:42:53;9.43;;;5.90;;
56419;SDS011;42323;52.170;7.538;2022-09-13T02:45:27;9.43;;;5.40;;
56419;SDS011;42323;52.170;7.538;2022-09-13T02:47:59;9.15;;;6.55;;
56419;SDS011;42323;52.170;7.538;2022-09-13T03:01:44;11.32;;;6.20;;
56419;SDS011;42323;52.170;7.538;2022-09-13T03:04:16;8.85;;;6.00;;
56419;SDS011;42323;52.170;7.538;2022-09-13T03:06:43;8.73;;;6.82;;
56419;SDS011;42323;52.170;7.538;2022-09-13T03:09:09;9.95;;;6.00;;
56419;SDS011;42323;52.170;7.538;2022-09-13T03:20:11;11.07;;;6.60;;
56419;SDS011;42323;52.170;7.538;2022-09-13T03:28:02;11.55;;;6.90;;
56419;SDS011;42323;52.170;7.538;2022-09-13T03:30:49;10.00;;;7.03;;
56419;SDS011;42323;52.170;7.538;2022-09-13T03:33:28;10.77;;;6.82;;
56419;SDS011;42323;52.170;7.538;2022-09-13T03:41:30;12.77;;;7.43;;
56419;SDS011;42323;52.170;7.538;2022-09-13T03:44:04;10.32;;;6.63;;
56419;SDS011;42323;52.170;7.538;2022-09-13T03:46:46;10.07;;;6.60;;
56419;SDS011;42323;52.170;7.538;2022-09-13T03:49:16;10.32;;;6.60;;
56419;SDS011;42323;52.170;7.538;2022-09-13T03:51:46;9.65;;;6.85;;
56419;SDS011;42323;52.170;7.538;2022-09-13T03:54:17;9.57;;;7.05;;
56419;SDS011;42323;52.170;7.538;2022-09-13T03:59:36;9.73;;;6.63;;
56419;SDS011;42323;52.170;7.538;2022-09-13T04:02:05;9.73;;;6.50;;
56419;SDS011;42323;52.170;7.538;2022-09-13T04:04:35;8.50;;;6.88;;
56419;SDS011;42323;52.170;7.538;2022-09-13T04:07:02;10.15;;;6.85;;
56419;SDS011;42323;52.170;7.538;2022-09-13T04:09:30;10.20;;;6.90;;
56419;SDS011;42323;52.170;7.538;2022-09-13T04:11:57;11.45;;;7.88;;
56419;SDS011;42323;52.170;7.538;2022-09-13T04:14:24;9.65;;;6.85;;
56419;SDS011;42323;52.170;7.538;2022-09-13T04:16:55;12.07;;;7.32;;
56419;SDS011;42323;52.170;7.538;2022-09-13T04:19:23;11.52;;;7.13;;
56419;SDS011;42323;52.170;7.538;2022-09-13T04:21:51;10.52;;;6.65;;
56419;SDS011;42323;52.170;7.538;2022-09-13T04:24:19;10.60;;;7.13;;
56419;SDS011;42323;52.170;7.538;2022-09-13T04:26:49;9.55;;;6.68;;
56419;SDS011;42323;52.170;7.538;2022-09-13T04:29:16;13.13;;;6.93;;
56419;SDS011;42323;52.170;7.538;2022-09-13T04:31:46;11.13;;;7.63;;
56419;SDS011;42323;52.170;7.538;2022-09-13T04:34:14;10.25;;;6.45;;
56419;SDS011;42323;52.170;7.538;2022-09-13T04:36:43;9.48;;;6.47;;
56419;SDS011;42323;52.170;7.538;2022-09-13T04:39:10;10.52;;;7.38;;
56419;SDS011;42323;52.170;7.538;2022-09-13T04:41:39;12.00;;;6.97;;
56419;SDS011;42323;52.170;7.538;2022-09-13T04:44:07;9.20;;;6.70;;
56419;SDS011;42323;52.170;7.538;2022-09-13T04:46:33;10.45;;;6.80;;
56419;SDS011;42323;52.170;7.538;2022-09-13T04:49:00;12.80;;;7.80;;
56419;SDS011;42323;52.170;7.538;2022-09-13T04:51:27;12.90;;;7.18;;
56419;SDS011;42323;52.170;7.538;2022-09-13T04:53:54;10.27;;;6.93;;
56419;SDS011;42323;52.170;7.538;2022-09-13T04:56:23;11.23;;;7.95;;
56419;SDS011;42323;52.170;7.538;2022-09-13T04:58:50;11.77;;;7.32;;
56419;SDS011;42323;52.170;7.538;2022-09-13T05:01:17;9.50;;;6.70;;
56419;SDS011;42323;52.170;7.538;2022-09-13T05:03:44;10.77;;;7.43;;
56419;SDS011;42323;52.170;7.538;2022-09-13T05:06:12;11.32;;;7.47;;
56419;SDS011;42323;52.170;7.538;2022-09-13T05:08:43;12.18;;;8.02;;
56419;SDS011;42323;52.170;7.538;2022-09-13T05:11:12;13.18;;;8.25;;
56419;SDS011;42323;52.170;7.538;2022-09-13T05:13:38;11.63;;;7.18;;
56419;SDS011;42323;52.170;7.538;2022-09-13T05:16:05;11.68;;;7.60;;
56419;SDS011;42323;52.170;7.538;2022-09-13T05:18:34;10.02;;;7.57;;
56419;SDS011;42323;52.170;7.538;2022-09-13T05:21:03;14.20;;;7.90;;
56419;SDS011;42323;52.170;7.538;2022-09-13T05:23:30;12.75;;;7.85;;
56419;SDS011;42323;52.170;7.538;2022-09-13T05:25:59;12.70;;;7.63;;
56419;SDS011;42323;52.170;7.538;2022-09-13T05:28:28;12.60;;;7.35;;
56419;SDS011;42323;52.170;7.538;2022-09-13T05:30:57;12.82;;;8.20;;
56419;SDS011;42323;52.170;7.538;2022-09-13T05:33:32;11.18;;;7.15;;
56419;SDS011;42323;52.170;7.538;2022-09-13T05:36:00;13.35;;;7.47;;
56419;SDS011;42323;52.170;7.538;2022-09-13T05:38:27;12.80;;;7.68;;
56419;SDS011;42323;52.170;7.538;2022-09-13T05:40:55;13.15;;;7.85;;
56419;SDS011;42323;52.170;7.538;2022-09-13T05:43:24;11.98;;;7.85;;
56419;SDS011;42323;52.170;7.538;2022-09-13T05:46:03;12.75;;;7.38;;
56419;SDS011;42323;52.170;7.538;2022-09-13T05:48:31;12.57;;;7.35;;
56419;SDS011;42323;52.170;7.538;2022-09-13T05:51:32;11.63;;;7.93;;
56419;SDS011;42323;52.170;7.538;2022-09-13T05:53:51;10.43;;;7.43;;
56419;SDS011;42323;52.170;7.538;2022-09-13T05:56:24;9.98;;;7.75;;
56419;SDS011;42323;52.170;7.538;2022-09-13T05:58:53;11.07;;;7.35;;
56419;SDS011;42323;52.170;7.538;2022-09-13T06:01:22;12.88;;;7.30;;
56419;SDS011;42323;52.170;7.538;2022-09-13T06:03:54;11.60;;;7.63;;
56419;SDS011;42323;52.170;7.538;2022-09-13T06:06:22;14.07;;;7.25;;
56419;SDS011;42323;52.170;7.538;2022-09-13T06:08:56;14.82;;;7.63;;
56419;SDS011;42323;52.170;7.538;2022-09-13T06:11:24;13.45;;;7.97;;
56419;SDS011;42323;52.170;7.538;2022-09-13T06:13:52;11.40;;;8.27;;
56419;SDS011;42323;52.170;7.538;2022-09-13T06:16:19;14.63;;;8.77;;
56419;SDS011;42323;52.170;7.538;2022-09-13T06:18:47;13.82;;;8.45;;
56419;SDS011;42323;52.170;7.538;2022-09-13T06:21:16;15.35;;;8.80;;
56419;SDS011;42323;52.170;7.538;2022-09-13T06:23:48;12.85;;;9.27;;
56419;SDS011;42323;52.170;7.538;2022-09-13T06:26:22;14.85;;;8.90;;
56419;SDS011;42323;52.170;7.538;2022-09-13T06:28:52;15.68;;;8.98;;
56419;SDS011;42323;52.170;7.538;2022-09-13T06:31:21;15.18;;;9.40;;
56419;SDS011;42323;52.170;7.538;2022-09-13T06:33:53;14.57;;;9.48;;
56419;SDS011;42323;52.170;7.538;2022-09-13T06:36:25;14.57;;;8.98;;
56419;SDS011;42323;52.170;7.538;2022-09-13T06:38:52;19.42;;;10.90;;
56419;SDS011;42323;52.170;7.538;2022-09-13T06:41:20;16.13;;;10.60;;
56419;SDS011;42323;52.170;7.538;2022-09-13T06:43:52;18.05;;;11.35;;
56419;SDS011;42323;52.170;7.538;2022-09-13T06:46:20;17.25;;;11.05;;
56419;SDS011;42323;52.170;7.538;2022-09-13T06:48:50;16.50;;;11.00;;
56419;SDS011;42323;52.170;7.538;2022-09-13T06:51:19;16.60;;;10.80;;
56419;SDS011;42323;52.170;7.538;2022-09-13T06:53:47;16.85;;;10.15;;
56419;SDS011;42323;52.170;7.538;2022-09-13T06:56:16;15.75;;;10.10;;
56419;SDS011;42323;52.170;7.538;2022-09-13T06:58:46;14.85;;;10.50;;
56419;SDS011;42323;52.170;7.538;2022-09-13T07:01:15;15.27;;;10.25;;
56419;SDS011;42323;52.170;7.538;2022-09-13T07:03:45;15.45;;;10.13;;
56419;SDS011;42323;52.170;7.538;2022-09-13T07:06:17;17.08;;;10.50;;
56419;SDS011;42323;52.170;7.538;2022-09-13T07:08:49;17.90;;;11.13;;
56419;SDS011;42323;52.170;7.538;2022-09-13T07:11:18;18.25;;;11.70;;
56419;SDS011;42323;52.170;7.538;2022-09-13T07:13:51;17.50;;;11.07;;
56419;SDS011;42323;52.170;7.538;2022-09-13T07:16:19;18.77;;;12.20;;
56419;SDS011;42323;52.170;7.538;2022-09-13T07:18:51;20.70;;;12.73;;
56419;SDS011;42323;52.170;7.538;2022-09-13T07:21:24;17.98;;;11.90;;
56419;SDS011;42323;52.170;7.538;2022-09-13T07:23:53;21.35;;;13.07;;
56419;SDS011;42323;52.170;7.538;2022-09-13T07:26:21;18.95;;;11.73;;
56419;SDS011;42323;52.170;7.538;2022-09-13T07:28:51;17.70;;;11.82;;
56419;SDS011;42323;52.170;7.538;2022-09-13T07:31:23;19.23;;;12.25;;
56419;SDS011;42323;52.170;7.538;2022-09-13T07:33:53;18.85;;;12.43;;
56419;SDS011;42323;52.170;7.538;2022-09-13T07:36:21;22.08;;;12.25;;
56419;SDS011;42323;52.170;7.538;2022-09-13T07:38:48;18.10;;;12.35;;
56419;SDS011;42323;52.170;7.538;2022-09-13T07:41:17;28.23;;;12.98;;
56419;SDS011;42323;52.170;7.538;2022-09-13T07:43:45;20.02;;;12.95;;
56419;SDS011;42323;52.170;7.538;2022-09-13T07:46:13;20.27;;;13.02;;
56419;SDS011;42323;52.170;7.538;2022-09-13T07:48:43;18.83;;;12.57;;
56419;SDS011;42323;52.170;7.538;2022-09-13T07:51:15;19.30;;;13.32;;
56419;SDS011;42323;52.170;7.538;2022-09-13T07:53:44;23.33;;;13.55;;
56419;SDS011;42323;52.170;7.538;2022-09-13T07:56:12;22.73;;;13.98;;
56419;SDS011;42323;52.170;7.538;2022-09-13T07:58:40;18.98;;;13.00;;
56419;SDS011;42323;52.170;7.538;2022-09-13T08:01:18;21.80;;;12.95;;
56419;SDS011;42323;52.170;7.538;2022-09-13T08:06:28;24.13;;;13.88;;
56419;SDS011;42323;52.170;7.538;2022-09-13T08:08:56;23.35;;;13.48;;
56419;SDS011;42323;52.170;7.538;2022-09-13T08:11:24;20.63;;;12.52;;
56419;SDS011;42323;52.170;7.538;2022-09-13T08:13:54;23.63;;;13.25;;
56419;SDS011;42323;52.170;7.538;2022-09-13T08:16:21;21.73;;;13.02;;
56419;SDS011;42323;52.170;7.538;2022-09-13T08:18:51;23.40;;;12.88;;
56419;SDS011;42323;52.170;7.538;2022-09-13T08:21:23;19.63;;;11.90;;
56419;SDS011;42323;52.170;7.538;2022-09-13T08:23:54;21.70;;;14.45;;
56419;SDS011;42323;52.170;7.538;2022-09-13T08:26:22;21.25;;;12.95;;
56419;SDS011;42323;52.170;7.538;2022-09-13T08:28:53;20.95;;;13.13;;
56419;SDS011;42323;52.170;7.538;2022-09-13T08:31:22;21.17;;;13.23;;
56419;SDS011;42323;52.170;7.538;2022-09-13T08:33:49;21.05;;;12.80;;
56419;SDS011;42323;52.170;7.538;2022-09-13T08:36:17;21.00;;;12.95;;
56419;SDS011;42323;52.170;7.538;2022-09-13T08:38:45;20.50;;;12.85;;
56419;SDS011;42323;52.170;7.538;2022-09-13T08:49:15;21.75;;;11.20;;
56419;SDS011;42323;52.170;7.538;2022-09-13T08:51:48;16.33;;;11.32;;
56419;SDS011;42323;52.170;7.538;2022-09-13T08:54:18;15.13;;;10.75;;
56419;SDS011;42323;52.170;7.538;2022-09-13T08:59:44;16.60;;;10.80;;
56419;SDS011;42323;52.170;7.538;2022-09-13T09:10:28;18.70;;;12.13;;
56419;SDS011;42323;52.170;7.538;2022-09-13T09:13:02;20.60;;;12.18;;
56419;SDS011;42323;52.170;7.538;2022-09-13T09:20:46;22.80;;;13.50;;
56419;SDS011;42323;52.170;7.538;2022-09-13T09:26:12;20.70;;;12.05;;
56419;SDS011;42323;52.170;7.538;2022-09-13T09:28:49;21.70;;;13.13;;
56419;SDS011;42323;52.170;7.538;2022-09-13T09:34:19;18.80;;;11.95;;
56419;SDS011;42323;52.170;7.538;2022-09-13T09:37:02;18.27;;;12.27;;
56419;SDS011;42323;52.170;7.538;2022-09-13T09:39:37;18.95;;;12.25;;
56419;SDS011;42323;52.170;7.538;2022-09-13T09:42:10;21.67;;;12.95;;
56419;SDS011;42323;52.170;7.538;2022-09-13T09:44:40;20.55;;;12.40;;
56419;SDS011;42323;52.170;7.538;2022-09-13T09:47:15;17.83;;;11.68;;
56419;SDS011;42323;52.170;7.538;2022-09-13T09:49:57;19.25;;;12.40;;
56419;SDS011;42323;52.170;7.538;2022-09-13T09:57:49;14.52;;;7.38;;
56419;SDS011;42323;52.170;7.538;2022-09-13T10:00:16;16.10;;;5.95;;
56419;SDS011;42323;52.170;7.538;2022-09-13T10:02:45;8.70;;;6.25;;
56419;SDS011;42323;52.170;7.538;2022-09-13T10:05:16;8.82;;;5.65;;
56419;SDS011;42323;52.170;7.538;2022-09-13T10:07:50;8.63;;;5.68;;
56419;SDS011;42323;52.170;7.538;2022-09-13T10:13:01;6.88;;;5.15;;
56419;SDS011;42323;52.170;7.538;2022-09-13T10:15:30;6.35;;;4.35;;
56419;SDS011;42323;52.170;7.538;2022-09-13T10:18:14;8.32;;;5.20;;
56419;SDS011;42323;52.170;7.538;2022-09-13T10:21:04;8.43;;;5.63;;
56419;SDS011;42323;52.170;7.538;2022-09-13T10:23:43;7.43;;;4.88;;
56419;SDS011;42323;52.170;7.538;2022-09-13T10:26:21;7.78;;;5.20;;
56419;SDS011;42323;52.170;7.538;2022-09-13T10:31:18;9.65;;;5.10;;
56419;SDS011;42323;52.170;7.538;2022-09-13T10:36:21;6.80;;;4.30;;
56419;SDS011;42323;52.170;7.538;2022-09-13T10:39:13;6.82;;;4.50;;
56419;SDS011;42323;52.170;7.538;2022-09-13T10:41:47;5.97;;;4.50;;
56419;SDS011;42323;52.170;7.538;2022-09-13T10:47:09;7.30;;;4.03;;
56419;SDS011;42323;52.170;7.538;2022-09-13T10:49:47;5.28;;;3.67;;
56419;SDS011;42323;52.170;7.538;2022-09-13T10:53:00;5.10;;;3.83;;
56419;SDS011;42323;52.170;7.538;2022-09-13T10:57:45;4.80;;;3.53;;
56419;SDS011;42323;52.170;7.538;2022-09-13T11:00:20;5.68;;;3.40;;
56419;SDS011;42323;52.170;7.538;2022-09-13T11:17:08;5.93;;;3.20;;
56419;SDS011;42323;52.170;7.538;2022-09-13T11:19:59;5.97;;;3.78;;
56419;SDS011;42323;52.170;7.538;2022-09-13T11:30:26;5.57;;;2.85;;
56419;SDS011;42323;52.170;7.538;2022-09-13T11:38:11;3.85;;;2.40;;
56419;SDS011;42323;52.170;7.538;2022-09-13T11:40:59;4.65;;;2.70;;
56419;SDS011;42323;52.170;7.538;2022-09-13T12:02:34;2.97;;;2.10;;
56419;SDS011;42323;52.170;7.538;2022-09-13T12:13:09;3.22;;;2.10;;
56419;SDS011;42323;52.170;7.538;2022-09-13T12:15:45;3.10;;;1.70;;
56419;SDS011;42323;52.170;7.538;2022-09-13T12:18:24;4.65;;;2.17;;
56419;SDS011;42323;52.170;7.538;2022-09-13T12:20:59;2.67;;;1.70;;
56419;SDS011;42323;52.170;7.538;2022-09-13T12:23:42;2.50;;;1.35;;
56419;SDS011;42323;52.170;7.538;2022-09-13T12:29:23;3.20;;;1.60;;
56419;SDS011;42323;52.170;7.538;2022-09-13T12:32:02;5.35;;;1.52;;
56419;SDS011;42323;52.170;7.538;2022-09-13T12:45:12;1.88;;;1.02;;
56419;SDS011;42323;52.170;7.538;2022-09-13T12:53:32;3.65;;;0.98;;
56419;SDS011;42323;52.170;7.538;2022-09-13T12:59:14;2.38;;;1.00;;
56419;SDS011;42323;52.170;7.538;2022-09-13T13:01:51;2.10;;;1.00;;
56419;SDS011;42323;52.170;7.538;2022-09-13T13:04:22;1.75;;;0.98;;
56419;SDS011;42323;52.170;7.538;2022-09-13T13:06:55;2.17;;;1.20;;
56419;SDS011;42323;52.170;7.538;2022-09-13T13:17:51;3.00;;;1.15;;
56419;SDS011;42323;52.170;7.538;2022-09-13T13:23:29;2.15;;;0.80;;
56419;SDS011;42323;52.170;7.538;2022-09-13T13:36:29;2.80;;;0.80;;
56419;SDS011;42323;52.170;7.538;2022-09-13T13:39:00;2.00;;;0.90;;
56419;SDS011;42323;52.170;7.538;2022-09-13T13:46:45;1.10;;;0.68;;
56419;SDS011;42323;52.170;7.538;2022-09-13T14:02:49;2.28;;;0.60;;
56419;SDS011;42323;52.170;7.538;2022-09-13T14:20:03;1.35;;;0.65;;
56419;SDS011;42323;52.170;7.538;2022-09-13T14:27:44;1.45;;;0.50;;
56419;SDS011;42323;52.170;7.538;2022-09-13T14:30:20;1.00;;;0.55;;
56419;SDS011;42323;52.170;7.538;2022-09-13T14:33:15;2.15;;;0.60;;
56419;SDS011;42323;52.170;7.538;2022-09-13T14:35:55;1.00;;;0.40;;
56419;SDS011;42323;52.170;7.538;2022-09-13T14:38:29;1.20;;;0.50;;
56419;SDS011;42323;52.170;7.538;2022-09-13T14:41:11;2.20;;;0.77;;
56419;SDS011;42323;52.170;7.538;2022-09-13T14:43:41;3.22;;;0.82;;
56419;SDS011;42323;52.170;7.538;2022-09-13T14:46:24;3.25;;;0.60;;
56419;SDS011;42323;52.170;7.538;2022-09-13T14:49:00;1.05;;;0.68;;
56419;SDS011;42323;52.170;7.538;2022-09-13T14:51:34;1.70;;;0.70;;
56419;SDS011;42323;52.170;7.538;2022-09-13T14:54:09;2.22;;;0.63;;
56419;SDS011;42323;52.170;7.538;2022-09-13T14:56:53;0.93;;;0.55;;
56419;SDS011;42323;52.170;7.538;2022-09-13T14:59:25;1.17;;;0.60;;
56419;SDS011;42323;52.170;7.538;2022-09-13T15:02:04;1.77;;;0.45;;
56419;SDS011;42323;52.170;7.538;2022-09-13T15:04:43;2.40;;;0.68;;
56419;SDS011;42323;52.170;7.538;2022-09-13T15:07:21;1.42;;;0.70;;
56419;SDS011;42323;52.170;7.538;2022-09-13T15:09:48;1.23;;;0.40;;
56419;SDS011;42323;52.170;7.538;2022-09-13T15:12:24;1.75;;;0.50;;
56419;SDS011;42323;52.170;7.538;2022-09-13T15:17:53;1.30;;;0.70;;
56419;SDS011;42323;52.170;7.538;2022-09-13T15:20:25;1.02;;;0.52;;
56419;SDS011;42323;52.170;7.538;2022-09-13T15:22:53;1.50;;;0.50;;
56419;SDS011;42323;52.170;7.538;2022-09-13T15:25:28;3.80;;;0.60;;
56419;SDS011;42323;52.170;7.538;2022-09-13T15:27:55;2.28;;;0.70;;
56419;SDS011;42323;52.170;7.538;2022-09-13T15:30:24;1.40;;;0.40;;
56419;SDS011;42323;52.170;7.538;2022-09-13T15:35:37;4.35;;;0.70;;
56419;SDS011;42323;52.170;7.538;2022-09-13T15:41:11;3.58;;;0.75;;
56419;SDS011;42323;52.170;7.538;2022-09-13T15:43:43;1.63;;;0.70;;
56419;SDS011;42323;52.170;7.538;2022-09-13T15:46:13;1.52;;;0.60;;
56419;SDS011;42323;52.170;7.538;2022-09-13T15:48:49;2.25;;;0.55;;
56419;SDS011;42323;52.170;7.538;2022-09-13T15:51:18;1.35;;;0.70;;
56419;SDS011;42323;52.170;7.538;2022-09-13T15:53:45;1.95;;;0.68;;
56419;SDS011;42323;52.170;7.538;2022-09-13T15:56:15;2.20;;;0.70;;
56419;SDS011;42323;52.170;7.538;2022-09-13T15:58:44;1.17;;;0.50;;
56419;SDS011;42323;52.170;7.538;2022-09-13T16:01:11;1.17;;;0.50;;
56419;SDS011;42323;52.170;7.538;2022-09-13T16:03:39;2.95;;;0.68;;
56419;SDS011;42323;52.170;7.538;2022-09-13T16:06:07;2.47;;;1.15;;
56419;SDS011;42323;52.170;7.538;2022-09-13T16:08:35;1.52;;;0.63;;
56419;SDS011;42323;52.170;7.538;2022-09-13T16:11:02;2.63;;;0.80;;
56419;SDS011;42323;52.170;7.538;2022-09-13T16:13:30;1.90;;;0.80;;
56419;SDS011;42323;52.170;7.538;2022-09-13T16:15:57;4.20;;;0.80;;
56419;SDS011;42323;52.170;7.538;2022-09-13T16:18:25;2.13;;;0.55;;
56419;SDS011;42323;52.170;7.538;2022-09-13T16:20:52;3.00;;;0.70;;
56419;SDS011;42323;52.170;7.538;2022-09-13T16:23:20;3.13;;;0.70;;
56419;SDS011;42323;52.170;7.538;2022-09-13T16:25:48;2.55;;;0.50;;
56419;SDS011;42323;52.170;7.538;2022-09-13T16:28:19;1.77;;;0.60;;
56419;SDS011;42323;52.170;7.538;2022-09-13T16:30:47;2.85;;;0.60;;
56419;SDS011;42323;52.170;7.538;2022-09-13T16:33:14;2.95;;;0.90;;
56419;SDS011;42323;52.170;7.538;2022-09-13T16:35:41;4.68;;;0.80;;
56419;SDS011;42323;52.170;7.538;2022-09-13T16:38:09;2.30;;;0.63;;
56419;SDS011;42323;52.170;7.538;2022-09-13T16:40:39;1.08;;;0.40;;
56419;SDS011;42323;52.170;7.538;2022-09-13T16:43:08;4.13;;;0.93;;
56419;SDS011;42323;52.170;7.538;2022-09-13T16:45:38;1.67;;;0.70;;
56419;SDS011;42323;52.170;7.538;2022-09-13T16:48:06;1.98;;;0.80;;
56419;SDS011;42323;52.170;7.538;2022-09-13T16:50:34;4.85;;;0.90;;
56419;SDS011;42323;52.170;7.538;2022-09-13T16:53:04;1.50;;;1.00;;
56419;SDS011;42323;52.170;7.538;2022-09-13T16:55:31;2.80;;;0.70;;
56419;SDS011;42323;52.170;7.538;2022-09-13T16:57:58;4.90;;;1.00;;
56419;SDS011;42323;52.170;7.538;2022-09-13T17:00:24;2.40;;;0.77;;
56419;SDS011;42323;52.170;7.538;2022-09-13T17:02:54;4.07;;;1.00;;
56419;SDS011;42323;52.170;7.538;2022-09-13T17:05:23;1.80;;;0.77;;
56419;SDS011;42323;52.170;7.538;2022-09-13T17:07:52;2.90;;;0.90;;
56419;SDS011;42323;52.170;7.538;2022-09-13T17:10:19;3.78;;;1.10;;
56419;SDS011;42323;52.170;7.538;2022-09-13T17:12:47;3.47;;;0.60;;
56419;SDS011;42323;52.170;7.538;2022-09-13T17:15:14;2.92;;;0.82;;
56419;SDS011;42323;52.170;7.538;2022-09-13T17:17:41;2.35;;;0.90;;
56419;SDS011;42323;52.170;7.538;2022-09-13T17:20:09;2.38;;;0.70;;
56419;SDS011;42323;52.170;7.538;2022-09-13T17:22:38;1.45;;;0.75;;
56419;SDS011;42323;52.170;7.538;2022-09-13T17:25:06;3.83;;;0.80;;
56419;SDS011;42323;52.170;7.538;2022-09-13T17:27:33;2.10;;;0.80;;
56419;SDS011;42323;52.170;7.538;2022-09-13T17:30:00;1.60;;;0.70;;
56419;SDS011;42323;52.170;7.538;2022-09-13T17:32:30;4.85;;;0.80;;
56419;SDS011;42323;52.170;7.538;2022-09-13T17:34:57;3.20;;;0.73;;
56419;SDS011;42323;52.170;7.538;2022-09-13T17:37:24;1.08;;;0.80;;
56419;SDS011;42323;52.170;7.538;2022-09-13T17:39:51;1.60;;;0.65;;
56419;SDS011;42323;52.170;7.538;2022-09-13T17:42:18;2.95;;;0.73;;
56419;SDS011;42323;52.170;7.538;2022-09-13T17:44:48;2.15;;;0.85;;
56419;SDS011;42323;52.170;7.538;2022-09-13T17:47:16;1.98;;;0.98;;
56419;SDS011;42323;52.170;7.538;2022-09-13T17:49:42;2.00;;;0.90;;
56419;SDS011;42323;52.170;7.538;2022-09-13T17:52:10;5.63;;;0.93;;
56419;SDS011;42323;52.170;7.538;2022-09-13T17:54:37;6.65;;;1.10;;
56419;SDS011;42323;52.170;7.538;2022-09-13T17:57:04;5.22;;;1.10;;
56419;SDS011;42323;52.170;7.538;2022-09-13T17:59:31;4.65;;;1.10;;
56419;SDS011;42323;52.170;7.538;2022-09-13T18:01:59;3.75;;;1.10;;
56419;SDS011;42323;52.170;7.538;2022-09-13T18:04:26;4.30;;;0.90;;
56419;SDS011;42323;52.170;7.538;2022-09-13T18:06:53;1.38;;;0.90;;
56419;SDS011;42323;52.170;7.538;2022-09-13T18:09:20;2.55;;;0.95;;
56419;SDS011;42323;52.170;7.538;2022-09-13T18:11:48;2.65;;;0.95;;
56419;SDS011;42323;52.170;7.538;2022-09-13T18:14:15;1.73;;;0.90;;
56419;SDS011;42323;52.170;7.538;2022-09-13T18:16:44;1.50;;;0.85;;
56419;SDS011;42323;52.170;7.538;2022-09-13T18:19:11;3.85;;;1.10;;
56419;SDS011;42323;52.170;7.538;2022-09-13T18:21:39;2.20;;;1.40;;
56419;SDS011;42323;52.170;7.538;2022-09-13T18:24:06;2.08;;;0.85;;
56419;SDS011;42323;52.170;7.538;2022-09-13T18:26:33;2.28;;;0.73;;
56419;SDS011;42323;52.170;7.538;2022-09-13T18:29:02;2.55;;;1.02;;
56419;SDS011;42323;52.170;7.538;2022-09-13T18:31:30;1.38;;;0.75;;
56419;SDS011;42323;52.170;7.538;2022-09-13T18:34:01;2.63;;;0.88;;
56419;SDS011;42323;52.170;7.538;2022-09-13T18:36:30;1.92;;;0.80;;
56419;SDS011;42323;52.170;7.538;2022-09-13T18:38:58;2.55;;;1.00;;
56419;SDS011;42323;52.170;7.538;2022-09-13T18:41:31;3.97;;;1.30;;
56419;SDS011;42323;52.170;7.538;2022-09-13T18:44:02;3.10;;;1.10;;
56419;SDS011;42323;52.170;7.538;2022-09-13T18:46:32;2.17;;;1.00;;
56419;SDS011;42323;52.170;7.538;2022-09-13T18:49:00;3.55;;;1.20;;
56419;SDS011;42323;52.170;7.538;2022-09-13T18:51:29;2.78;;;1.00;;
56419;SDS011;42323;52.170;7.538;2022-09-13T18:53:59;2.13;;;0.90;;
56419;SDS011;42323;52.170;7.538;2022-09-13T18:56:26;1.60;;;1.00;;
56419;SDS011;42323;52.170;7.538;2022-09-13T18:58:54;1.98;;;0.90;;
56419;SDS011;42323;52.170;7.538;2022-09-13T19:01:23;7.32;;;1.20;;
56419;SDS011;42323;52.170;7.538;2022-09-13T19:03:53;2.25;;;1.00;;
56419;SDS011;42323;52.170;7.538;2022-09-13T19:06:22;6.13;;;1.20;;
56419;SDS011;42323;52.170;7.538;2022-09-13T19:09:02;1.60;;;1.00;;
56419;SDS011;42323;52.170;7.538;2022-09-13T19:11:31;2.58;;;1.00;;
56419;SDS011;42323;52.170;7.538;2022-09-13T19:14:22;2.35;;;0.98;;
56419;SDS011;42323;52.170;7.538;2022-09-13T19:16:52;5.10;;;1.10;;
56419;SDS011;42323;52.170;7.538;2022-09-13T19:19:19;3.35;;;1.10;;
56419;SDS011;42323;52.170;7.538;2022-09-13T19:21:47;5.30;;;1.08;;
56419;SDS011;42323;52.170;7.538;2022-09-13T19:24:14;5.20;;;1.13;;
56419;SDS011;42323;52.170;7.538;2022-09-13T19:26:44;2.95;;;1.30;;
56419;SDS011;42323;52.170;7.538;2022-09-13T19:29:14;3.60;;;1.60;;
56419;SDS011;42323;52.170;7.538;2022-09-13T19:31:43;3.22;;;2.17;;
56419;SDS011;42323;52.170;7.538;2022-09-13T19:34:14;3.45;;;1.50;;